createdAt,value
2022-11-12T00:01:04.346Z,14.13
2022-11-12T00:03:33.408Z,14.24
2022-11-12T00:06:01.272Z,14.55
2022-11-12T00:08:29.420Z,14.05
2022-11-12T00:10:57.423Z,14.31
2022-11-12T00:13:25.193Z,14.39
2022-11-12T00:15:53.012Z,14.25
2022-11-12T00:18:20.851Z,14.20
2022-11-12T00:20:50.100Z,14.07
2022-11-12T00:23:17.800Z,14.30
2022-11-12T00:25:45.525Z,14.08
2022-11-12T00:28:13.261Z,14.07
2022-11-12T00:30:41.974Z,14.11
2022-11-12T00:33:09.876Z,14.01
2022-11-12T00:35:37.615Z,13.96
2022-11-12T00:38:06.656Z,14.20
2022-11-12T00:40:34.457Z,14.05
2022-11-12T00:43:02.217Z,14.05
2022-11-12T00:45:29.950Z,14.10
2022-11-12T00:47:58.363Z,14.10
2022-11-12T00:50:26.612Z,13.82
2022-11-12T00:52:54.895Z,14.04
2022-11-12T00:55:23.975Z,14.14
2022-11-12T00:57:51.895Z,14.28
2022-11-12T01:00:20.700Z,13.95
2022-11-12T01:02:51.262Z,14.23
2022-11-12T01:05:20.416Z,14.14
2022-11-12T01:07:51.787Z,13.96
2022-11-12T01:10:24.288Z,13.96
2022-11-12T01:12:52.095Z,14.14
2022-11-12T01:15:20.016Z,14.05
2022-11-12T01:17:47.725Z,13.89
2022-11-12T01:20:15.422Z,14.00
2022-11-12T01:22:43.129Z,14.09
2022-11-12T01:25:10.806Z,14.09
2022-11-12T01:27:39.889Z,13.95
2022-11-12T01:30:08.576Z,14.08
2022-11-12T01:32:37.732Z,14.23
2022-11-12T01:35:06.710Z,13.85
2022-11-12T01:37:34.440Z,14.11
2022-11-12T01:40:02.155Z,13.97
2022-11-12T01:42:31.076Z,14.06
2022-11-12T01:45:00.155Z,14.03
2022-11-12T01:47:31.851Z,14.23
2022-11-12T01:50:06.102Z,14.12
2022-11-12T01:52:38.475Z,13.90
2022-11-12T01:55:10.380Z,14.14
2022-11-12T01:57:42.667Z,14.10
2022-11-12T02:00:14.271Z,14.64
2022-11-12T02:02:43.904Z,14.23
2022-11-12T02:05:13.130Z,14.38
2022-11-12T02:07:44.060Z,14.26
2022-11-12T02:10:11.773Z,14.30
2022-11-12T02:12:57.155Z,14.37
2022-11-12T02:15:26.844Z,14.35
2022-11-12T02:17:54.718Z,14.51
2022-11-12T02:20:22.590Z,14.11
2022-11-12T02:22:51.682Z,14.09
2022-11-12T02:25:23.341Z,14.10
2022-11-12T02:27:54.490Z,14.17
2022-11-12T02:30:33.238Z,13.98
2022-11-12T02:33:01.038Z,14.13
2022-11-12T02:35:28.857Z,14.24
2022-11-12T02:37:57.972Z,14.23
2022-11-12T02:40:25.666Z,14.18
2022-11-12T02:42:53.383Z,14.22
2022-11-12T02:45:21.364Z,14.08
2022-11-12T02:47:49.183Z,14.35
2022-11-12T02:50:17.041Z,14.11
2022-11-12T02:52:44.747Z,14.25
2022-11-12T02:55:14.366Z,14.09
2022-11-12T02:57:42.285Z,13.86
2022-11-12T03:00:12.685Z,14.05
2022-11-12T03:02:42.593Z,13.74
2022-11-12T03:05:11.323Z,13.74
2022-11-12T03:07:39.248Z,13.74
2022-11-12T03:10:07.787Z,13.66
2022-11-12T03:12:36.837Z,13.52
2022-11-12T03:15:04.995Z,13.56
2022-11-12T03:17:32.707Z,13.37
2022-11-12T03:20:00.385Z,13.27
2022-11-12T03:22:28.099Z,13.38
2022-11-12T03:24:55.778Z,13.39
2022-11-12T03:27:23.451Z,13.28
2022-11-12T03:29:52.507Z,13.22
2022-11-12T03:32:20.198Z,13.57
2022-11-12T03:34:50.541Z,12.78
2022-11-12T03:37:20.651Z,13.32
2022-11-12T03:39:48.325Z,13.54
2022-11-12T03:42:16.048Z,13.65
2022-11-12T03:44:43.764Z,13.36
2022-11-12T03:47:12.845Z,13.71
2022-11-12T03:49:40.909Z,13.25
2022-11-12T03:52:08.685Z,13.70
2022-11-12T03:54:36.386Z,13.71
2022-11-12T03:57:04.435Z,13.63
2022-11-12T03:59:32.128Z,13.72
2022-11-12T04:01:59.847Z,13.95
2022-11-12T04:04:49.056Z,13.87
2022-11-12T04:07:34.287Z,13.87
2022-11-12T04:10:03.067Z,13.65
2022-11-12T04:12:48.129Z,13.70
2022-11-12T04:15:15.949Z,13.83
2022-11-12T04:18:01.194Z,13.51
2022-11-12T04:21:02.377Z,13.99
2022-11-12T04:23:30.090Z,13.95
2022-11-12T04:26:15.223Z,13.77
2022-11-12T04:29:02.997Z,14.15
2022-11-12T04:31:29.722Z,13.85
2022-11-12T04:34:17.539Z,13.39
2022-11-12T04:36:46.604Z,13.69
2022-11-12T04:39:14.439Z,13.80
2022-11-12T04:41:59.654Z,13.83
2022-11-12T04:44:44.926Z,13.79
2022-11-12T04:47:12.634Z,13.76
2022-11-12T04:49:40.326Z,14.00
2022-11-12T04:52:10.863Z,14.05
2022-11-12T04:54:38.614Z,13.70
2022-11-12T04:57:06.327Z,14.03
2022-11-12T04:59:34.078Z,14.08
2022-11-12T05:02:02.053Z,13.76
2022-11-12T05:04:29.831Z,13.97
2022-11-12T05:06:58.124Z,13.83
2022-11-12T05:09:29.471Z,14.21
2022-11-12T05:11:57.423Z,14.28
2022-11-12T05:14:25.696Z,14.14
2022-11-12T05:16:53.480Z,14.11
2022-11-12T05:19:21.169Z,13.96
2022-11-12T05:22:17.427Z,14.17
2022-11-12T05:24:51.228Z,13.97
2022-11-12T05:27:21.158Z,13.58
2022-11-12T05:29:48.881Z,13.97
2022-11-12T05:32:18.421Z,14.15
2022-11-12T05:34:46.106Z,13.92
2022-11-12T05:37:15.018Z,14.02
2022-11-12T05:39:43.098Z,13.81
2022-11-12T05:42:13.747Z,13.77
2022-11-12T05:44:41.952Z,13.58
2022-11-12T05:47:09.694Z,13.62
2022-11-12T05:49:37.384Z,13.70
2022-11-12T05:52:05.461Z,13.92
2022-11-12T05:54:33.637Z,13.91
2022-11-12T05:57:01.348Z,13.67
2022-11-12T05:59:30.432Z,13.77
2022-11-12T06:01:58.152Z,13.43
2022-11-12T06:04:26.228Z,13.41
2022-11-12T06:06:54.000Z,13.71
2022-11-12T06:09:21.888Z,14.17
2022-11-12T06:11:49.566Z,13.69
2022-11-12T06:14:17.226Z,14.04
2022-11-12T06:16:46.268Z,13.72
2022-11-12T06:19:13.959Z,13.72
2022-11-12T06:21:41.703Z,14.00
2022-11-12T06:24:09.895Z,13.46
2022-11-12T06:26:38.057Z,13.68
2022-11-12T06:29:05.793Z,13.75
2022-11-12T06:31:33.534Z,13.58
2022-11-12T06:34:03.142Z,13.73
2022-11-12T06:36:30.846Z,13.67
2022-11-12T06:38:58.507Z,13.90
2022-11-12T06:41:26.218Z,13.68
2022-11-12T06:43:53.886Z,13.81
2022-11-12T06:46:21.618Z,13.93
2022-11-12T06:48:49.346Z,13.70
2022-11-12T06:51:20.438Z,13.81
2022-11-12T06:53:48.575Z,13.89
2022-11-12T06:56:16.503Z,14.48
2022-11-12T06:58:44.377Z,14.16
2022-11-12T07:01:14.324Z,14.08
2022-11-12T07:03:43.149Z,14.38
2022-11-12T07:06:13.330Z,14.45
2022-11-12T07:08:42.995Z,14.49
2022-11-12T07:11:25.925Z,14.18
2022-11-12T07:13:54.908Z,14.42
2022-11-12T07:16:22.831Z,14.30
2022-11-12T07:18:50.907Z,14.55
2022-11-12T07:21:21.075Z,14.41
2022-11-12T07:23:50.414Z,14.52
2022-11-12T07:26:21.160Z,14.90
2022-11-12T07:28:50.585Z,14.64
2022-11-12T07:31:20.476Z,14.93
2022-11-12T07:33:49.220Z,14.65
2022-11-12T07:36:19.005Z,14.85
2022-11-12T07:38:47.090Z,14.77
2022-11-12T07:41:18.296Z,15.02
2022-11-12T07:43:48.003Z,15.06
2022-11-12T07:46:18.456Z,15.19
2022-11-12T07:48:46.762Z,14.74
2022-11-12T07:51:17.184Z,14.72
2022-11-12T07:53:46.078Z,14.84
2022-11-12T07:56:17.012Z,14.64
2022-11-12T07:58:45.551Z,14.73
2022-11-12T08:01:24.838Z,14.85
2022-11-12T08:03:52.554Z,14.59
2022-11-12T08:06:20.493Z,14.74
2022-11-12T08:08:48.388Z,14.50
2022-11-12T08:11:17.434Z,14.80
2022-11-12T08:13:45.126Z,14.97
2022-11-12T08:16:12.757Z,14.85
2022-11-12T08:18:40.456Z,14.83
2022-11-12T08:21:11.709Z,14.94
2022-11-12T08:23:39.425Z,14.45
2022-11-12T08:26:10.282Z,15.02
2022-11-12T08:28:39.717Z,14.66
2022-11-12T08:31:09.365Z,14.94
2022-11-12T08:33:37.248Z,15.09
2022-11-12T08:36:05.585Z,14.91
2022-11-12T08:38:34.008Z,14.68
2022-11-12T08:41:02.487Z,14.89
2022-11-12T08:43:30.215Z,15.17
2022-11-12T08:46:01.175Z,14.92
2022-11-12T08:48:29.955Z,14.88
2022-11-12T08:50:58.392Z,14.56
2022-11-12T08:53:26.547Z,15.21
2022-11-12T08:55:55.303Z,15.66
2022-11-12T08:58:23.718Z,15.34
2022-11-12T09:00:52.102Z,15.22
2022-11-12T09:03:23.871Z,15.18
2022-11-12T09:05:52.328Z,15.09
2022-11-12T09:08:22.924Z,15.58
2022-11-12T09:10:51.525Z,14.86
2022-11-12T09:13:19.951Z,15.57
2022-11-12T09:15:48.351Z,15.35
2022-11-12T09:18:18.147Z,14.99
2022-11-12T09:20:47.338Z,15.66
2022-11-12T09:23:18.257Z,15.33
2022-11-12T09:25:46.262Z,15.60
2022-11-12T09:28:15.907Z,15.58
2022-11-12T09:30:46.421Z,15.46
2022-11-12T09:33:14.539Z,15.52
2022-11-12T09:35:42.228Z,15.44
2022-11-12T09:38:11.284Z,15.29
2022-11-12T09:40:47.171Z,15.50
2022-11-12T09:43:23.439Z,15.60
2022-11-12T09:46:13.631Z,15.34
2022-11-12T09:48:45.327Z,15.28
2022-11-12T09:51:17.775Z,15.66
2022-11-12T09:53:53.642Z,15.68
2022-11-12T09:56:22.459Z,15.57
2022-11-12T09:58:50.805Z,15.97
2022-11-12T10:01:23.356Z,15.74
2022-11-12T10:04:04.193Z,15.07
2022-11-12T10:06:39.584Z,15.82
2022-11-12T10:09:16.196Z,15.71
2022-11-12T10:12:20.720Z,16.02
2022-11-12T10:15:22.113Z,16.31
2022-11-12T10:17:55.129Z,15.80
2022-11-12T10:20:28.616Z,15.89
2022-11-12T10:23:16.388Z,16.20
2022-11-12T10:25:48.541Z,15.94
2022-11-12T10:28:28.033Z,16.08
2022-11-12T10:31:02.887Z,16.24
2022-11-12T10:33:32.387Z,16.32
2022-11-12T10:36:18.193Z,16.23
2022-11-12T10:38:48.885Z,15.71
2022-11-12T10:41:23.773Z,16.24
2022-11-12T10:43:58.527Z,15.99
2022-11-12T10:46:28.845Z,16.36
2022-11-12T10:49:01.102Z,16.43
2022-11-12T10:51:32.320Z,16.51
2022-11-12T10:54:00.397Z,16.25
2022-11-12T10:56:33.913Z,16.14
2022-11-12T10:59:15.300Z,16.09
2022-11-12T11:01:45.928Z,16.35
2022-11-12T11:04:22.935Z,16.54
2022-11-12T11:06:59.936Z,16.28
2022-11-12T11:09:28.365Z,16.01
2022-11-12T11:11:57.532Z,16.68
2022-11-12T11:14:28.286Z,16.22
2022-11-12T11:17:01.565Z,16.15
2022-11-12T11:19:36.900Z,16.04
2022-11-12T11:22:27.443Z,16.57
2022-11-12T11:25:11.499Z,16.71
2022-11-12T11:27:50.098Z,16.48
2022-11-12T11:30:20.246Z,16.37
2022-11-12T11:33:33.853Z,16.35
2022-11-12T11:36:14.871Z,16.29
2022-11-12T11:38:54.263Z,16.73
2022-11-12T11:41:38.261Z,16.13
2022-11-12T11:44:22.081Z,16.73
2022-11-12T11:47:00.045Z,16.26
2022-11-12T11:49:44.207Z,16.73
2022-11-12T11:52:25.898Z,16.52
2022-11-12T11:55:07.419Z,16.30
2022-11-12T11:57:44.543Z,16.35
2022-11-12T12:00:18.558Z,16.52
2022-11-12T12:03:09.816Z,16.44
2022-11-12T12:05:44.817Z,16.61
2022-11-12T12:08:20.317Z,16.65
2022-11-12T12:11:08.122Z,16.58
2022-11-12T12:13:52.970Z,16.58
2022-11-12T12:16:40.400Z,16.70
2022-11-12T12:19:20.073Z,16.47
2022-11-12T12:21:50.886Z,17.15
2022-11-12T12:24:24.330Z,16.96
2022-11-12T12:26:57.380Z,17.25
2022-11-12T12:29:32.261Z,16.85
2022-11-12T12:32:06.254Z,17.28
2022-11-12T12:34:39.252Z,17.50
2022-11-12T12:37:16.064Z,17.18
2022-11-12T12:39:54.185Z,17.03
2022-11-12T12:42:27.168Z,17.23
2022-11-12T12:45:02.059Z,16.96
2022-11-12T12:47:36.833Z,17.10
2022-11-12T12:50:08.483Z,17.53
2022-11-12T12:53:00.672Z,17.13
2022-11-12T12:55:36.579Z,17.34
2022-11-12T12:58:04.517Z,17.25
2022-11-12T13:00:39.390Z,16.92
2022-11-12T13:03:12.430Z,16.91
2022-11-12T13:05:40.678Z,16.87
2022-11-12T13:08:11.623Z,17.02
2022-11-12T13:10:50.729Z,16.44
2022-11-12T13:13:32.746Z,16.82
2022-11-12T13:16:02.084Z,16.68
2022-11-12T13:19:00.274Z,17.14
2022-11-12T13:21:28.501Z,16.84
2022-11-12T13:24:08.435Z,16.71
2022-11-12T13:27:03.613Z,17.25
2022-11-12T13:29:42.857Z,17.28
2022-11-12T13:32:36.528Z,17.19
2022-11-12T13:35:25.875Z,17.24
2022-11-12T13:37:56.081Z,16.90
2022-11-12T13:40:43.187Z,17.30
2022-11-12T13:43:32.561Z,17.28
2022-11-12T13:46:27.676Z,17.45
2022-11-12T13:49:01.365Z,17.22
2022-11-12T13:51:40.588Z,16.72
2022-11-12T13:54:30.859Z,17.07
2022-11-12T13:57:14.624Z,16.65
2022-11-12T13:59:42.355Z,16.68
2022-11-12T14:02:22.047Z,16.73
2022-11-12T14:04:50.273Z,17.00
2022-11-12T14:07:37.459Z,16.70
2022-11-12T14:10:16.682Z,17.09
2022-11-12T14:13:03.894Z,16.56
2022-11-12T14:15:53.319Z,16.45
2022-11-12T14:18:30.230Z,17.20
2022-11-12T14:20:58.109Z,17.47
2022-11-12T14:23:27.700Z,17.12
2022-11-12T14:25:56.996Z,17.09
2022-11-12T14:28:30.711Z,17.37
2022-11-12T14:31:00.588Z,15.93
2022-11-12T14:33:30.069Z,16.41
2022-11-12T14:36:03.060Z,15.96
2022-11-12T14:38:38.036Z,16.22
2022-11-12T14:41:10.109Z,16.13
2022-11-12T14:43:42.479Z,16.14
2022-11-12T14:46:22.519Z,16.58
2022-11-12T14:48:53.618Z,16.69
2022-11-12T14:51:22.268Z,16.19
2022-11-12T14:53:55.706Z,15.99
2022-11-12T14:56:35.123Z,16.28
2022-11-12T14:59:04.842Z,16.25
2022-11-12T15:02:14.528Z,16.48
2022-11-12T15:04:26.007Z,16.31
2022-11-12T15:06:55.360Z,15.93
2022-11-12T15:09:36.135Z,15.87
2022-11-12T15:12:06.396Z,15.48
2022-11-12T15:14:34.849Z,16.26
2022-11-12T15:17:05.594Z,15.47
2022-11-12T15:19:34.101Z,15.46
2022-11-12T15:22:03.989Z,15.45
2022-11-12T15:24:35.743Z,15.40
2022-11-12T15:27:24.457Z,16.18
2022-11-12T15:30:08.647Z,15.91
2022-11-12T15:32:36.891Z,15.20
2022-11-12T15:35:06.594Z,15.23
2022-11-12T15:37:43.521Z,15.33
2022-11-12T15:42:48.873Z,16.13
2022-11-12T15:45:19.224Z,15.93
2022-11-12T15:47:47.138Z,15.80
2022-11-12T15:50:18.564Z,15.97
2022-11-12T15:52:46.446Z,15.77
2022-11-12T15:55:14.870Z,15.63
2022-11-12T15:57:45.396Z,15.06
2022-11-12T16:00:20.440Z,14.85
2022-11-12T16:02:52.335Z,15.34
2022-11-12T16:05:20.123Z,15.66
2022-11-12T16:07:48.049Z,15.46
2022-11-12T16:10:17.537Z,15.38
2022-11-12T16:12:47.346Z,15.03
2022-11-12T16:15:19.210Z,15.74
2022-11-12T16:17:47.384Z,15.48
2022-11-12T16:20:16.998Z,15.87
2022-11-12T16:22:44.708Z,15.14
2022-11-12T16:25:12.402Z,15.12
2022-11-12T16:27:41.023Z,14.97
2022-11-12T16:30:17.569Z,15.20
2022-11-12T16:32:45.996Z,14.92
2022-11-12T16:35:13.694Z,15.15
2022-11-12T16:37:47.483Z,15.40
2022-11-12T16:40:17.421Z,15.36
2022-11-12T16:42:46.482Z,15.08
2022-11-12T16:45:17.229Z,14.73
2022-11-12T16:47:46.586Z,14.84
2022-11-12T16:50:16.073Z,14.89
2022-11-12T16:52:43.879Z,15.01
2022-11-12T16:55:11.799Z,15.27
2022-11-12T16:57:40.202Z,15.32
2022-11-12T17:00:11.993Z,15.07
2022-11-12T17:02:45.340Z,14.72
2022-11-12T17:05:17.711Z,14.94
2022-11-12T17:07:45.555Z,14.73
2022-11-12T17:10:13.978Z,14.87
2022-11-12T17:12:41.714Z,15.08
2022-11-12T17:15:10.338Z,14.92
2022-11-12T17:17:38.126Z,14.93
2022-11-12T17:20:08.918Z,15.01
2022-11-12T17:22:38.237Z,14.74
2022-11-12T17:25:07.031Z,14.65
2022-11-12T17:27:34.834Z,14.94
2022-11-12T17:30:02.710Z,15.42
2022-11-12T17:32:30.419Z,15.08
2022-11-12T17:34:58.128Z,14.86
2022-11-12T17:37:27.198Z,14.61
2022-11-12T17:39:54.960Z,15.12
2022-11-12T17:42:22.742Z,15.14
2022-11-12T17:44:50.551Z,14.65
2022-11-12T17:47:18.276Z,14.85
2022-11-12T17:49:45.981Z,14.87
2022-11-12T17:52:13.755Z,14.71
2022-11-12T17:54:43.254Z,14.61
2022-11-12T17:57:10.956Z,14.68
2022-11-12T17:59:38.620Z,14.93
2022-11-12T18:02:06.446Z,14.87
2022-11-12T18:04:34.124Z,14.69
2022-11-12T18:07:02.031Z,14.47
2022-11-12T18:09:29.809Z,14.33
2022-11-12T18:11:58.901Z,14.72
2022-11-12T18:14:26.606Z,14.79
2022-11-12T18:16:54.427Z,15.02
2022-11-12T18:19:22.194Z,14.75
2022-11-12T18:21:49.944Z,14.70
2022-11-12T18:24:17.861Z,15.08
2022-11-12T18:26:45.893Z,14.66
2022-11-12T18:29:15.050Z,15.09
2022-11-12T18:31:43.459Z,14.78
2022-11-12T18:34:14.807Z,14.57
2022-11-12T18:36:42.507Z,14.61
2022-11-12T18:39:10.350Z,14.95
2022-11-12T18:41:38.079Z,14.25
2022-11-12T18:44:05.937Z,14.63
2022-11-12T18:46:35.259Z,14.50
2022-11-12T18:49:02.943Z,14.35
2022-11-12T18:51:30.850Z,14.48
2022-11-12T18:53:58.528Z,14.52
2022-11-12T18:56:26.228Z,14.07
2022-11-12T18:58:53.946Z,14.33
2022-11-12T19:01:24.800Z,14.04
2022-11-12T19:03:56.052Z,14.30
2022-11-12T19:06:25.291Z,13.90
2022-11-12T19:08:58.551Z,13.96
2022-11-12T19:11:26.303Z,13.98
2022-11-12T19:13:55.679Z,13.79
2022-11-12T19:16:24.263Z,14.04
2022-11-12T19:18:52.396Z,14.05
2022-11-12T19:21:22.710Z,13.57
2022-11-12T19:23:54.142Z,13.90
2022-11-12T19:26:23.633Z,13.70
2022-11-12T19:28:51.570Z,14.10
2022-11-12T19:31:20.899Z,13.98
2022-11-12T19:33:49.835Z,14.07
2022-11-12T19:36:19.482Z,13.76
2022-11-12T19:38:48.582Z,13.69
2022-11-12T19:41:20.086Z,13.79
2022-11-12T19:43:48.111Z,13.55
2022-11-12T19:46:16.350Z,13.79
2022-11-12T19:48:44.384Z,13.64
2022-11-12T19:51:13.103Z,14.08
2022-11-12T19:53:44.469Z,13.69
2022-11-12T19:56:17.119Z,13.54
2022-11-12T19:58:46.394Z,13.58
2022-11-12T20:01:16.562Z,13.43
2022-11-12T20:03:44.745Z,13.24
2022-11-12T20:06:14.875Z,13.63
2022-11-12T20:08:42.780Z,13.41
2022-11-12T20:11:11.032Z,13.34
2022-11-12T20:13:40.242Z,13.49
2022-11-12T20:16:08.915Z,13.19
2022-11-12T20:18:36.621Z,13.35
2022-11-12T20:21:05.453Z,13.44
2022-11-12T20:23:33.977Z,13.88
2022-11-12T20:26:06.149Z,13.64
2022-11-12T20:28:34.546Z,13.33
2022-11-12T20:31:06.139Z,13.39
2022-11-12T20:33:39.261Z,13.78
2022-11-12T20:36:11.910Z,13.83
2022-11-12T20:38:40.519Z,13.58
2022-11-12T20:41:12.136Z,13.23
2022-11-12T20:43:39.944Z,13.24
2022-11-12T20:46:09.125Z,13.34
2022-11-12T20:48:42.618Z,13.14
2022-11-12T20:51:28.990Z,13.34
2022-11-12T20:54:00.496Z,13.19
2022-11-12T20:56:30.480Z,13.14
2022-11-12T20:58:59.070Z,13.57
2022-11-12T21:01:29.722Z,13.62
2022-11-12T21:03:58.139Z,13.42
2022-11-12T21:06:29.114Z,13.11
2022-11-12T21:08:59.106Z,13.24
2022-11-12T21:11:27.187Z,13.44
2022-11-12T21:13:54.971Z,13.12
2022-11-12T21:16:22.794Z,12.95
2022-11-12T21:18:51.853Z,12.97
2022-11-12T21:21:21.287Z,12.89
2022-11-12T21:23:50.405Z,13.15
2022-11-12T21:26:20.043Z,12.90
2022-11-12T21:28:51.306Z,12.86
2022-11-12T21:31:20.979Z,12.90
2022-11-12T21:33:51.815Z,12.92
2022-11-12T21:36:20.432Z,12.67
2022-11-12T21:38:49.049Z,13.67
2022-11-12T21:41:19.030Z,13.57
2022-11-12T21:43:46.834Z,13.37
2022-11-12T21:46:16.014Z,13.12
2022-11-12T21:48:44.195Z,13.28
2022-11-12T21:51:14.639Z,13.10
2022-11-12T21:53:43.163Z,13.04
2022-11-12T21:56:12.669Z,13.23
2022-11-12T21:58:40.629Z,13.35
2022-11-12T22:01:09.976Z,13.68
2022-11-12T22:03:38.073Z,13.30
2022-11-12T22:06:06.657Z,13.44
2022-11-12T22:08:36.050Z,13.12
2022-11-12T22:11:05.547Z,13.29
2022-11-12T22:13:34.364Z,13.18
2022-11-12T22:16:06.575Z,13.39
2022-11-12T22:18:35.106Z,13.38
2022-11-12T22:21:05.679Z,13.42
2022-11-12T22:23:36.481Z,13.29
2022-11-12T22:26:05.836Z,13.33
2022-11-12T22:28:34.834Z,13.44
2022-11-12T22:31:06.746Z,13.63
2022-11-12T22:33:34.737Z,13.79
2022-11-12T22:36:03.458Z,14.15
2022-11-12T22:38:36.822Z,13.74
2022-11-12T22:41:06.934Z,14.02
2022-11-12T22:43:36.615Z,13.95
2022-11-12T22:46:08.824Z,14.18
2022-11-12T22:48:36.794Z,13.63
2022-11-12T22:51:06.307Z,13.50
2022-11-12T22:53:35.726Z,13.93
2022-11-12T22:56:04.489Z,13.40
2022-11-12T22:58:37.225Z,13.59
2022-11-12T23:01:06.222Z,13.69
2022-11-12T23:03:34.657Z,13.68
2022-11-12T23:06:06.895Z,13.53
2022-11-12T23:08:36.846Z,13.04
2022-11-12T23:11:05.886Z,13.57
2022-11-12T23:13:34.083Z,13.35
2022-11-12T23:16:02.678Z,13.52
2022-11-12T23:18:31.451Z,13.64
2022-11-12T23:21:03.176Z,13.69
2022-11-12T23:23:30.852Z,13.75
2022-11-12T23:26:05.165Z,13.75
2022-11-12T23:28:33.146Z,13.68
2022-11-12T23:31:00.977Z,13.45
2022-11-12T23:33:28.821Z,13.58
2022-11-12T23:36:04.831Z,13.99
2022-11-12T23:38:32.941Z,13.84
2022-11-12T23:41:00.656Z,13.92
2022-11-12T23:43:29.973Z,13.98
2022-11-12T23:45:57.955Z,13.94
2022-11-12T23:48:26.606Z,13.75
2022-11-12T23:51:03.073Z,13.97
2022-11-12T23:53:30.879Z,13.40
2022-11-12T23:55:58.605Z,13.67
2022-11-12T23:58:26.536Z,13.32
